createdAt,value
2018-11-07T00:00:35.399Z,100275.00
2018-11-07T00:03:03.351Z,100279.00
2018-11-07T00:05:31.268Z,100277.00
2018-11-07T00:07:59.232Z,100281.00
2018-11-07T00:10:27.106Z,100293.00
2018-11-07T00:12:55.039Z,100283.00
2018-11-07T00:15:22.976Z,100282.00
2018-11-07T00:17:51.008Z,100275.00
2018-11-07T00:20:18.987Z,100278.00
2018-11-07T00:22:46.868Z,100282.00
2018-11-07T00:25:14.843Z,100284.00
2018-11-07T00:27:42.747Z,100287.00
2018-11-07T00:30:11.242Z,100284.00
2018-11-07T00:32:39.451Z,100287.00
2018-11-07T00:35:08.484Z,100281.00
2018-11-07T00:37:36.299Z,100274.00
2018-11-07T00:40:04.270Z,100279.00
2018-11-07T00:42:32.190Z,100289.00
2018-11-07T00:45:00.172Z,100284.00
2018-11-07T00:47:28.401Z,100286.00
2018-11-07T00:49:56.359Z,100283.00
2018-11-07T00:52:24.288Z,100285.00
2018-11-07T00:54:52.316Z,100296.00
2018-11-07T00:57:20.256Z,100300.00
2018-11-07T00:59:48.191Z,100299.00
2018-11-07T01:02:16.212Z,100308.00
2018-11-07T01:04:44.112Z,100314.00
2018-11-07T01:07:12.071Z,100321.00
2018-11-07T01:09:40.237Z,100317.00
2018-11-07T01:12:08.094Z,100313.00
2018-11-07T01:14:36.027Z,100311.00
2018-11-07T01:17:03.940Z,100313.00
2018-11-07T01:19:31.870Z,100318.00
2018-11-07T01:21:59.819Z,100314.00
2018-11-07T01:24:27.747Z,100314.00
2018-11-07T01:26:55.660Z,100316.00
2018-11-07T01:29:23.611Z,100327.00
2018-11-07T01:31:51.539Z,100321.00
2018-11-07T01:34:19.479Z,100315.00
2018-11-07T01:36:47.487Z,100324.00
2018-11-07T01:39:15.424Z,100323.00
2018-11-07T01:41:43.359Z,100326.00
2018-11-07T01:44:11.235Z,100327.00
2018-11-07T01:46:39.207Z,100323.00
2018-11-07T01:49:07.163Z,100327.00
2018-11-07T01:51:35.068Z,100323.00
2018-11-07T01:54:03.012Z,100325.00
2018-11-07T01:56:30.964Z,100311.00
2018-11-07T01:58:58.997Z,100308.00
2018-11-07T02:01:26.855Z,100306.00
2018-11-07T02:03:54.767Z,100310.00
2018-11-07T02:06:22.696Z,100295.00
2018-11-07T02:08:50.607Z,100290.00
2018-11-07T02:11:18.570Z,100295.00
2018-11-07T02:13:46.515Z,100294.00
2018-11-07T02:16:14.460Z,100301.00
2018-11-07T02:18:42.898Z,100311.00
2018-11-07T02:21:10.840Z,100312.00
2018-11-07T02:23:38.831Z,100310.00
2018-11-07T02:26:06.784Z,100313.00
2018-11-07T02:28:34.687Z,100312.00
2018-11-07T02:31:02.595Z,100316.00
2018-11-07T02:33:30.532Z,100306.00
2018-11-07T02:35:58.453Z,100319.00
2018-11-07T02:38:26.353Z,100313.00
2018-11-07T02:40:54.284Z,100311.00
2018-11-07T02:43:22.187Z,100315.00
2018-11-07T02:45:50.128Z,100318.00
2018-11-07T02:48:18.078Z,100326.00
2018-11-07T02:50:45.979Z,100318.00
2018-11-07T02:53:14.017Z,100318.00
2018-11-07T02:55:41.852Z,100320.00
2018-11-07T02:58:09.795Z,100326.00
2018-11-07T03:00:37.708Z,100324.00
2018-11-07T03:03:05.647Z,100319.00
2018-11-07T03:05:33.557Z,100306.00
2018-11-07T03:08:01.454Z,100303.00
2018-11-07T03:10:29.441Z,100305.00
2018-11-07T03:12:57.284Z,100312.00
2018-11-07T03:15:25.227Z,100308.00
2018-11-07T03:17:53.143Z,100301.00
2018-11-07T03:20:21.080Z,100296.00
2018-11-07T03:22:49.000Z,100303.00
2018-11-07T03:25:16.959Z,100301.00
2018-11-07T03:27:44.870Z,100301.00
2018-11-07T03:30:12.828Z,100300.00
2018-11-07T03:32:40.736Z,100302.00
2018-11-07T03:35:14.831Z,100297.00
2018-11-07T03:37:42.757Z,100290.00
2018-11-07T03:40:10.691Z,100287.00
2018-11-07T03:42:38.611Z,100293.00
2018-11-07T03:45:06.571Z,100289.00
2018-11-07T03:47:34.536Z,100287.00
2018-11-07T03:50:02.503Z,100283.00
2018-11-07T03:52:30.439Z,100277.00
2018-11-07T03:54:58.367Z,100289.00
2018-11-07T03:57:26.419Z,100296.00
2018-11-07T03:59:54.399Z,100306.00
2018-11-07T04:02:22.321Z,100296.00
2018-11-07T04:04:50.275Z,100295.00
2018-11-07T04:07:18.204Z,100297.00
2018-11-07T04:09:46.152Z,100296.00
2018-11-07T04:12:14.071Z,100292.00
2018-11-07T04:14:42.012Z,100284.00
2018-11-07T04:17:09.992Z,100291.00
2018-11-07T04:19:37.917Z,100283.00
2018-11-07T04:22:05.859Z,100282.00
2018-11-07T04:24:33.844Z,100286.00
2018-11-07T04:27:01.787Z,100285.00
2018-11-07T04:29:29.712Z,100283.00
2018-11-07T04:31:57.645Z,100277.00
2018-11-07T04:34:25.607Z,100280.00
2018-11-07T04:36:53.552Z,100288.00
2018-11-07T04:39:21.467Z,100296.00
2018-11-07T04:41:49.403Z,100297.00
2018-11-07T04:44:17.426Z,100293.00
2018-11-07T04:46:45.344Z,100290.00
2018-11-07T04:49:13.295Z,100299.00
2018-11-07T04:51:41.207Z,100304.00
2018-11-07T04:54:09.172Z,100302.00
2018-11-07T04:56:37.154Z,100300.00
2018-11-07T04:59:05.103Z,100309.00
2018-11-07T05:01:33.004Z,100317.00
2018-11-07T05:04:00.934Z,100326.00
2018-11-07T05:06:28.880Z,100325.00
2018-11-07T05:08:56.809Z,100331.00
2018-11-07T05:11:24.729Z,100330.00
2018-11-07T05:13:52.638Z,100327.00
2018-11-07T05:16:20.623Z,100324.00
2018-11-07T05:18:48.560Z,100317.00
2018-11-07T05:21:16.524Z,100312.00
2018-11-07T05:23:44.507Z,100306.00
2018-11-07T05:26:12.449Z,100302.00
2018-11-07T05:28:40.373Z,100295.00
2018-11-07T05:31:08.284Z,100294.00
2018-11-07T05:33:36.191Z,100293.00
2018-11-07T05:36:04.134Z,100296.00
2018-11-07T05:38:32.089Z,100292.00
2018-11-07T05:41:00.046Z,100292.00
2018-11-07T05:43:27.939Z,100294.00
2018-11-07T05:45:55.891Z,100287.00
2018-11-07T05:48:23.807Z,100273.00
2018-11-07T05:50:51.753Z,100275.00
2018-11-07T05:53:19.684Z,100278.00
2018-11-07T05:55:47.616Z,100267.00
2018-11-07T05:58:15.615Z,100268.00
2018-11-07T06:00:43.543Z,100273.00
2018-11-07T06:03:11.463Z,100270.00
2018-11-07T06:05:39.404Z,100272.00
2018-11-07T06:08:07.339Z,100276.00
2018-11-07T06:10:35.256Z,100275.00
2018-11-07T06:13:03.212Z,100280.00
2018-11-07T06:15:31.116Z,100285.00
2018-11-07T06:17:59.040Z,100276.00
2018-11-07T06:20:26.982Z,100265.00
2018-11-07T06:22:54.983Z,100261.00
2018-11-07T06:25:22.843Z,100257.00
2018-11-07T06:27:50.783Z,100254.00
2018-11-07T06:30:18.723Z,100255.00
2018-11-07T06:32:46.663Z,100253.00
2018-11-07T06:35:14.595Z,100267.00
2018-11-07T06:37:42.511Z,100280.00
2018-11-07T06:40:11.531Z,100280.00
2018-11-07T06:42:39.522Z,100280.00
2018-11-07T06:45:07.980Z,100270.00
2018-11-07T06:47:35.923Z,100271.00
2018-11-07T06:50:04.170Z,100268.00
2018-11-07T06:52:32.127Z,100277.00
2018-11-07T06:55:00.042Z,100281.00
2018-11-07T06:57:28.040Z,100276.00
2018-11-07T06:59:55.978Z,100290.00
2018-11-07T07:02:23.907Z,100303.00
2018-11-07T07:04:51.825Z,100309.00
2018-11-07T07:07:19.760Z,100310.00
2018-11-07T07:09:47.680Z,100315.00
2018-11-07T07:12:15.602Z,100319.00
2018-11-07T07:14:43.573Z,100329.00
2018-11-07T07:17:11.503Z,100339.00
2018-11-07T07:19:39.418Z,100342.00
2018-11-07T07:22:07.401Z,100342.00
2018-11-07T07:24:35.335Z,100341.00
2018-11-07T07:27:03.256Z,100344.00
2018-11-07T07:29:31.191Z,100345.00
2018-11-07T07:31:59.108Z,100346.00
2018-11-07T07:34:27.047Z,100337.00
2018-11-07T07:36:54.960Z,100336.00
2018-11-07T07:39:22.871Z,100325.00
2018-11-07T07:41:50.795Z,100324.00
2018-11-07T07:44:18.705Z,100329.00
2018-11-07T07:46:46.616Z,100326.00
2018-11-07T07:49:14.849Z,100321.00
2018-11-07T07:51:42.749Z,100312.00
2018-11-07T07:54:10.651Z,100305.00
2018-11-07T07:56:38.579Z,100306.00
2018-11-07T07:59:06.552Z,100297.00
2018-11-07T08:01:34.550Z,100292.00
2018-11-07T08:04:02.438Z,100287.00
2018-11-07T08:06:33.489Z,100289.00
2018-11-07T08:09:01.419Z,100288.00
2018-11-07T08:11:29.600Z,100284.00
2018-11-07T08:13:57.782Z,100289.00
2018-11-07T08:16:25.663Z,100286.00
2018-11-07T08:18:53.563Z,100274.00
2018-11-07T08:21:21.564Z,100279.00
2018-11-07T08:23:49.469Z,100283.00
2018-11-07T08:26:17.415Z,100291.00
2018-11-07T08:28:45.447Z,100288.00
2018-11-07T08:31:13.384Z,100294.00
2018-11-07T08:33:41.316Z,100295.00
2018-11-07T08:36:09.396Z,100293.00
2018-11-07T08:38:37.456Z,100298.00
2018-11-07T08:41:05.399Z,100298.00
2018-11-07T08:43:33.335Z,100301.00
2018-11-07T08:46:01.284Z,100290.00
2018-11-07T08:48:29.220Z,100298.00
2018-11-07T08:50:57.168Z,100295.00
2018-11-07T08:53:25.140Z,100291.00
2018-11-07T08:55:53.100Z,100284.00
2018-11-07T08:58:21.035Z,100277.00
2018-11-07T09:00:49.005Z,100282.00
2018-11-07T09:03:16.932Z,100283.00
2018-11-07T09:05:44.884Z,100280.00
2018-11-07T09:08:12.812Z,100278.00
2018-11-07T09:10:40.744Z,100278.00
2018-11-07T09:13:08.847Z,100281.00
2018-11-07T09:15:36.791Z,100288.00
2018-11-07T09:18:04.920Z,100289.00
2018-11-07T09:20:32.864Z,100295.00
2018-11-07T09:23:00.944Z,100305.00
2018-11-07T09:25:28.904Z,100300.00
2018-11-07T09:27:56.824Z,100303.00
2018-11-07T09:30:24.740Z,100300.00
2018-11-07T09:32:52.708Z,100299.00
2018-11-07T09:35:21.167Z,100296.00
2018-11-07T09:37:49.112Z,100299.00
2018-11-07T09:40:18.460Z,100296.00
2018-11-07T09:42:47.132Z,100297.00
2018-11-07T09:45:16.275Z,100300.00
2018-11-07T09:47:44.723Z,100299.00
2018-11-07T09:50:14.591Z,100300.00
2018-11-07T09:52:42.760Z,100300.00
2018-11-07T09:55:12.508Z,100301.00
2018-11-07T09:57:40.672Z,100292.00
2018-11-07T10:00:10.371Z,100296.00
2018-11-07T10:02:38.615Z,100295.00
2018-11-07T10:05:07.480Z,100296.00
2018-11-07T10:07:35.397Z,100291.00
2018-11-07T10:10:03.353Z,100296.00
2018-11-07T10:12:31.298Z,100300.00
2018-11-07T10:14:59.168Z,100290.00
2018-11-07T10:17:27.100Z,100289.00
2018-11-07T10:19:55.116Z,100274.00
2018-11-07T10:22:23.088Z,100277.00
2018-11-07T10:24:51.026Z,100275.00
2018-11-07T10:27:19.180Z,100275.00
2018-11-07T10:29:47.175Z,100270.00
2018-11-07T10:32:14.866Z,100269.00
2018-11-07T10:34:42.830Z,100267.00
2018-11-07T10:37:10.791Z,100254.00
2018-11-07T10:39:38.736Z,100259.00
2018-11-07T10:42:06.727Z,100248.00
2018-11-07T10:44:34.633Z,100253.00
2018-11-07T10:47:02.593Z,100252.00
2018-11-07T10:49:30.523Z,100245.00
2018-11-07T10:51:58.484Z,100245.00
2018-11-07T10:54:26.319Z,100240.00
2018-11-07T10:56:54.248Z,100231.00
2018-11-07T10:59:22.195Z,100225.00
2018-11-07T11:01:55.497Z,100233.00
2018-11-07T11:04:23.432Z,100245.00
2018-11-07T11:06:51.356Z,100240.00
2018-11-07T11:09:19.285Z,100246.00
2018-11-07T11:11:47.216Z,100232.00
2018-11-07T11:14:15.149Z,100227.00
2018-11-07T11:16:43.088Z,100230.00
2018-11-07T11:19:10.977Z,100227.00
2018-11-07T11:21:38.908Z,100230.00
2018-11-07T11:24:06.844Z,100231.00
2018-11-07T11:26:34.815Z,100232.00
2018-11-07T11:29:02.833Z,100225.00
2018-11-07T11:31:30.768Z,100230.00
2018-11-07T11:33:58.786Z,100231.00
2018-11-07T11:36:26.662Z,100231.00
2018-11-07T11:38:54.707Z,100236.00
2018-11-07T11:41:22.636Z,100230.00
2018-11-07T11:43:50.573Z,100236.00
2018-11-07T11:46:18.487Z,100236.00
2018-11-07T11:48:46.424Z,100225.00
2018-11-07T11:51:14.385Z,100203.00
2018-11-07T11:53:42.280Z,100220.00
2018-11-07T11:56:10.284Z,100207.00
2018-11-07T11:58:38.219Z,100219.00
2018-11-07T12:01:06.646Z,100219.00
2018-11-07T12:03:34.608Z,100233.00
2018-11-07T12:06:02.555Z,100239.00
2018-11-07T12:08:30.665Z,100240.00
2018-11-07T12:10:58.495Z,100236.00
2018-11-07T12:13:27.065Z,100238.00
2018-11-07T12:15:55.003Z,100236.00
2018-11-07T12:18:23.111Z,100241.00
2018-11-07T12:20:51.627Z,100242.00
2018-11-07T12:23:19.857Z,100242.00
2018-11-07T12:25:47.901Z,100249.00
2018-11-07T12:28:16.411Z,100249.00
2018-11-07T12:30:44.790Z,100245.00
2018-11-07T12:33:12.918Z,100243.00
2018-11-07T12:35:41.432Z,100245.00
2018-11-07T12:38:09.942Z,100251.00
2018-11-07T12:40:38.230Z,100251.00
2018-11-07T12:43:06.795Z,100250.00
2018-11-07T12:45:34.958Z,100243.00
2018-11-07T12:48:03.277Z,100239.00
2018-11-07T12:50:31.700Z,100241.00
2018-11-07T12:52:59.773Z,100231.00
2018-11-07T12:55:28.208Z,100230.00
2018-11-07T12:57:56.648Z,100226.00
2018-11-07T13:00:26.100Z,100220.00
2018-11-07T13:02:54.070Z,100225.00
2018-11-07T13:05:22.830Z,100224.00
2018-11-07T13:07:51.445Z,100221.00
2018-11-07T13:10:20.628Z,100216.00
2018-11-07T13:12:49.163Z,100204.00
2018-11-07T13:15:17.455Z,100214.00
2018-11-07T13:17:45.913Z,100219.00
2018-11-07T13:20:16.130Z,100221.00
2018-11-07T13:22:46.500Z,100223.00
2018-11-07T13:25:14.969Z,100232.00
2018-11-07T13:27:42.907Z,100235.00
2018-11-07T13:30:13.139Z,100240.00
2018-11-07T13:32:41.426Z,100246.00
2018-11-07T13:35:10.292Z,100250.00
2018-11-07T13:37:39.360Z,100257.00
2018-11-07T13:40:09.296Z,100268.00
2018-11-07T13:42:37.211Z,100269.00
2018-11-07T13:45:06.571Z,100269.00
2018-11-07T13:47:34.540Z,100273.00
2018-11-07T13:50:02.466Z,100281.00
2018-11-07T13:52:30.398Z,100286.00
2018-11-07T13:54:58.315Z,100291.00
2018-11-07T13:57:26.347Z,100303.00
2018-11-07T13:59:54.279Z,100308.00
2018-11-07T14:02:22.215Z,100311.00
2018-11-07T14:04:50.160Z,100314.00
2018-11-07T14:07:18.140Z,100326.00
2018-11-07T14:09:46.043Z,100325.00
2018-11-07T14:12:13.982Z,100325.00
2018-11-07T14:14:42.005Z,100316.00
2018-11-07T14:17:09.928Z,100325.00
2018-11-07T14:19:37.843Z,100322.00
2018-11-07T14:22:05.771Z,100326.00
2018-11-07T14:24:33.712Z,100326.00
2018-11-07T14:27:01.625Z,100327.00
2018-11-07T14:29:29.550Z,100333.00
2018-11-07T14:31:57.991Z,100328.00
2018-11-07T14:34:26.058Z,100333.00
2018-11-07T14:36:53.963Z,100335.00
2018-11-07T14:39:21.936Z,100334.00
2018-11-07T14:41:49.859Z,100330.00
2018-11-07T14:44:17.931Z,100333.00
2018-11-07T14:46:45.846Z,100332.00
2018-11-07T14:49:13.748Z,100335.00
2018-11-07T14:51:41.679Z,100329.00
2018-11-07T14:54:09.593Z,100333.00
2018-11-07T14:56:37.515Z,100337.00
2018-11-07T14:59:05.408Z,100336.00
2018-11-07T15:01:33.368Z,100335.00
2018-11-07T15:04:01.291Z,100333.00
2018-11-07T15:06:29.220Z,100336.00
2018-11-07T15:08:57.175Z,100331.00
2018-11-07T15:11:25.075Z,100330.00
2018-11-07T15:13:52.964Z,100335.00
2018-11-07T15:16:20.875Z,100335.00
2018-11-07T15:18:48.802Z,100341.00
2018-11-07T15:21:16.707Z,100349.00
2018-11-07T15:23:44.627Z,100349.00
2018-11-07T15:26:12.555Z,100353.00
2018-11-07T15:28:40.493Z,100356.00
2018-11-07T15:31:08.400Z,100359.00
2018-11-07T15:33:36.356Z,100357.00
2018-11-07T15:36:04.295Z,100362.00
2018-11-07T15:38:32.203Z,100365.00
2018-11-07T15:41:00.188Z,100365.00
2018-11-07T15:43:28.124Z,100370.00
2018-11-07T15:45:56.028Z,100375.00
2018-11-07T15:48:23.943Z,100374.00
2018-11-07T15:50:57.084Z,100380.00
2018-11-07T15:53:25.003Z,100382.00
2018-11-07T15:55:52.939Z,100387.00
2018-11-07T15:58:20.840Z,100396.00
2018-11-07T16:00:48.723Z,100396.00
2018-11-07T16:03:20.899Z,100396.00
2018-11-07T16:05:48.817Z,100399.00
2018-11-07T16:08:16.713Z,100408.00
2018-11-07T16:10:44.623Z,100403.00
2018-11-07T16:13:12.610Z,100407.00
2018-11-07T16:15:40.614Z,100407.00
2018-11-07T16:18:08.380Z,100407.00
2018-11-07T16:20:36.346Z,100406.00
2018-11-07T16:23:04.719Z,100411.00
2018-11-07T16:25:32.619Z,100420.00
2018-11-07T16:28:00.547Z,100429.00
2018-11-07T16:30:28.468Z,100432.00
2018-11-07T16:32:56.408Z,100441.00
2018-11-07T16:35:24.316Z,100441.00
2018-11-07T16:37:52.297Z,100445.00
2018-11-07T16:40:20.312Z,100454.00
2018-11-07T16:42:48.213Z,100466.00
2018-11-07T16:45:16.939Z,100473.00
2018-11-07T16:47:45.028Z,100462.00
2018-11-07T16:50:14.008Z,100466.00
2018-11-07T16:52:42.078Z,100469.00
2018-11-07T16:55:09.955Z,100472.00
2018-11-07T16:57:38.379Z,100471.00
2018-11-07T17:00:08.425Z,100479.00
2018-11-07T17:02:36.360Z,100482.00
2018-11-07T17:05:04.431Z,100486.00
2018-11-07T17:07:32.332Z,100490.00
2018-11-07T17:10:00.283Z,100488.00
2018-11-07T17:12:28.192Z,100504.00
2018-11-07T17:14:56.299Z,100498.00
2018-11-07T17:17:24.220Z,100494.00
2018-11-07T17:19:52.135Z,100497.00
2018-11-07T17:22:20.067Z,100503.00
2018-11-07T17:24:48.057Z,100522.00
2018-11-07T17:27:15.927Z,100521.00
2018-11-07T17:29:43.896Z,100529.00
2018-11-07T17:32:11.828Z,100535.00
2018-11-07T17:34:39.739Z,100537.00
2018-11-07T17:37:07.721Z,100537.00
2018-11-07T17:39:35.663Z,100538.00
2018-11-07T17:42:03.591Z,100543.00
2018-11-07T17:44:31.536Z,100545.00
2018-11-07T17:46:59.492Z,100553.00
2018-11-07T17:49:27.404Z,100551.00
2018-11-07T17:51:55.399Z,100543.00
2018-11-07T17:54:23.375Z,100545.00
2018-11-07T17:56:51.281Z,100552.00
2018-11-07T17:59:19.221Z,100554.00
2018-11-07T18:01:47.143Z,100555.00
2018-11-07T18:04:15.058Z,100553.00
2018-11-07T18:06:43.015Z,100565.00
2018-11-07T18:09:11.140Z,100570.00
2018-11-07T18:11:39.234Z,100574.00
2018-11-07T18:14:07.895Z,100583.00
2018-11-07T18:16:35.824Z,100579.00
2018-11-07T18:19:03.760Z,100579.00
2018-11-07T18:21:31.767Z,100579.00
2018-11-07T18:23:59.703Z,100585.00
2018-11-07T18:26:27.660Z,100588.00
2018-11-07T18:28:55.571Z,100593.00
2018-11-07T18:31:23.474Z,100584.00
2018-11-07T18:33:51.421Z,100580.00
2018-11-07T18:36:19.338Z,100585.00
2018-11-07T18:38:47.248Z,100588.00
2018-11-07T18:41:15.171Z,100584.00
2018-11-07T18:43:43.184Z,100588.00
2018-11-07T18:46:11.120Z,100599.00
2018-11-07T18:48:39.067Z,100594.00
2018-11-07T18:51:07.012Z,100600.00
2018-11-07T18:53:34.936Z,100603.00
2018-11-07T18:56:02.928Z,100607.00
2018-11-07T18:58:30.978Z,100611.00
2018-11-07T19:00:58.883Z,100608.00
2018-11-07T19:03:26.792Z,100615.00
2018-11-07T19:05:54.720Z,100616.00
2018-11-07T19:08:22.651Z,100618.00
2018-11-07T19:10:50.583Z,100626.00
2018-11-07T19:13:18.511Z,100622.00
2018-11-07T19:15:46.409Z,100623.00
2018-11-07T19:18:14.312Z,100623.00
2018-11-07T19:20:42.262Z,100634.00
2018-11-07T19:23:10.186Z,100640.00
2018-11-07T19:25:38.127Z,100639.00
2018-11-07T19:28:06.053Z,100644.00
2018-11-07T19:30:33.951Z,100643.00
2018-11-07T19:33:01.895Z,100644.00
2018-11-07T19:35:29.800Z,100651.00
2018-11-07T19:37:57.722Z,100648.00
2018-11-07T19:40:26.367Z,100647.00
2018-11-07T19:42:54.239Z,100646.00
2018-11-07T19:45:22.783Z,100659.00
2018-11-07T19:47:50.991Z,100656.00
2018-11-07T19:50:19.784Z,100664.00
2018-11-07T19:52:48.792Z,100668.00
2018-11-07T19:55:18.960Z,100661.00
2018-11-07T19:57:48.928Z,100665.00
2018-11-07T20:00:17.392Z,100673.00
2018-11-07T20:02:46.006Z,100676.00
2018-11-07T20:05:14.136Z,100679.00
2018-11-07T20:07:42.092Z,100677.00
2018-11-07T20:10:12.581Z,100678.00
2018-11-07T20:12:40.567Z,100681.00
2018-11-07T20:15:10.009Z,100680.00
2018-11-07T20:17:38.000Z,100680.00
2018-11-07T20:20:06.636Z,100685.00
2018-11-07T20:22:34.701Z,100687.00
2018-11-07T20:25:02.607Z,100684.00
2018-11-07T20:27:30.886Z,100695.00
2018-11-07T20:29:59.180Z,100698.00
2018-11-07T20:32:27.106Z,100698.00
2018-11-07T20:34:55.052Z,100705.00
2018-11-07T20:37:22.989Z,100706.00
2018-11-07T20:39:51.052Z,100718.00
2018-11-07T20:42:18.996Z,100710.00
2018-11-07T20:44:46.939Z,100716.00
2018-11-07T20:47:14.878Z,100711.00
2018-11-07T20:49:42.875Z,100715.00
2018-11-07T20:52:10.816Z,100720.00
2018-11-07T20:54:38.802Z,100730.00
2018-11-07T20:57:06.740Z,100740.00
2018-11-07T20:59:34.712Z,100742.00
2018-11-07T21:02:02.776Z,100743.00
2018-11-07T21:04:30.920Z,100746.00
2018-11-07T21:06:58.823Z,100748.00
2018-11-07T21:09:26.764Z,100755.00
2018-11-07T21:11:54.711Z,100759.00
2018-11-07T21:14:22.631Z,100763.00
2018-11-07T21:16:50.612Z,100771.00
2018-11-07T21:19:18.500Z,100775.00
2018-11-07T21:21:46.420Z,100778.00
2018-11-07T21:24:14.343Z,100771.00
2018-11-07T21:26:42.248Z,100765.00
2018-11-07T21:29:10.191Z,100765.00
2018-11-07T21:31:38.102Z,100769.00
2018-11-07T21:34:06.040Z,100761.00
2018-11-07T21:36:33.959Z,100766.00
2018-11-07T21:39:02.305Z,100775.00
2018-11-07T21:41:30.256Z,100782.00
2018-11-07T21:43:58.246Z,100780.00
2018-11-07T21:46:26.163Z,100779.00
2018-11-07T21:48:54.089Z,100782.00
2018-11-07T21:51:22.031Z,100787.00
2018-11-07T21:53:49.935Z,100789.00
2018-11-07T21:56:17.875Z,100792.00
2018-11-07T21:58:45.824Z,100801.00
2018-11-07T22:01:13.807Z,100806.00
2018-11-07T22:03:41.743Z,100807.00
2018-11-07T22:06:09.665Z,100815.00
2018-11-07T22:08:37.596Z,100815.00
2018-11-07T22:11:05.631Z,100817.00
2018-11-07T22:13:33.548Z,100826.00
2018-11-07T22:16:01.496Z,100831.00
2018-11-07T22:18:29.444Z,100840.00
2018-11-07T22:20:57.356Z,100831.00
2018-11-07T22:23:25.847Z,100837.00
2018-11-07T22:25:54.567Z,100838.00
2018-11-07T22:28:23.332Z,100839.00
2018-11-07T22:30:51.303Z,100834.00
2018-11-07T22:33:19.224Z,100846.00
2018-11-07T22:35:47.144Z,100851.00
2018-11-07T22:38:15.083Z,100851.00
2018-11-07T22:40:42.999Z,100855.00
2018-11-07T22:43:10.934Z,100853.00
2018-11-07T22:45:38.876Z,100855.00
2018-11-07T22:48:06.774Z,100855.00
2018-11-07T22:50:34.716Z,100853.00
2018-11-07T22:53:02.623Z,100857.00
2018-11-07T22:55:30.576Z,100857.00
2018-11-07T22:57:58.497Z,100859.00
2018-11-07T23:00:31.917Z,100863.00
2018-11-07T23:02:59.868Z,100871.00
2018-11-07T23:05:27.817Z,100874.00
2018-11-07T23:07:55.728Z,100876.00
2018-11-07T23:10:23.661Z,100872.00
2018-11-07T23:12:51.608Z,100869.00
2018-11-07T23:15:24.894Z,100865.00
2018-11-07T23:17:52.842Z,100865.00
2018-11-07T23:20:20.777Z,100864.00
2018-11-07T23:22:48.688Z,100874.00
2018-11-07T23:25:16.635Z,100885.00
2018-11-07T23:27:44.842Z,100890.00
2018-11-07T23:30:12.743Z,100897.00
2018-11-07T23:32:40.683Z,100895.00
2018-11-07T23:35:08.660Z,100890.00
2018-11-07T23:37:36.821Z,100891.00
2018-11-07T23:40:05.275Z,100891.00
2018-11-07T23:42:33.385Z,100892.00
2018-11-07T23:45:01.320Z,100891.00
2018-11-07T23:47:31.460Z,100896.00
2018-11-07T23:49:59.348Z,100896.00
2018-11-07T23:52:32.615Z,100903.00
2018-11-07T23:55:00.573Z,100900.00
2018-11-07T23:57:28.581Z,100890.00
2018-11-07T23:59:56.463Z,100897.00
